Time;durP1;ratioP1;P1;durP2;ratioP2;P2;SDS_P1;SDS_P2;PMS_P1;PMS_P2;Temp;Humidity;BMP_temperature;BMP_pressure;BME280_temperature;BME280_humidity;BME280_pressure;Samples;Min_cycle;Max_cycle;Signal;HPM_P1;HPM_P2
2021/09/09 00:01:52;;;;;;;7.82;5.75;;;;;;;14.68;100.00;99259.84;5030385;28;20064;-52
2021/09/09 00:04:18;;;;;;;8.55;4.90;;;;;;;14.68;100.00;99268.53;5030322;28;20132;-52
2021/09/09 00:06:45;;;;;;;7.03;5.10;;;;;;;14.67;100.00;99269.47;5017849;28;20037;-54
2021/09/09 00:09:12;;;;;;;7.38;5.55;;;;;;;14.60;100.00;99246.38;5030223;28;20543;-50
2021/09/09 00:11:38;;;;;;;8.65;4.68;;;;;;;14.53;99.21;99238.03;5029820;28;20471;-53
2021/09/09 00:14:04;;;;;;;8.75;5.68;;;;;;;14.62;100.00;99258.41;5029868;28;20120;-54
2021/09/09 00:16:31;;;;;;;7.45;5.45;;;;;;;14.59;100.00;99265.63;5029258;28;20094;-51
2021/09/09 00:18:59;;;;;;;9.23;5.25;;;;;;;14.56;100.00;99271.84;5027478;28;20103;-51
2021/09/09 00:21:25;;;;;;;9.00;5.72;;;;;;;14.52;100.00;99259.88;5030855;28;20045;-52
2021/09/09 00:23:52;;;;;;;9.68;5.70;;;;;;;14.58;100.00;99272.63;5026875;28;20517;-53
2021/09/09 00:26:18;;;;;;;6.90;4.70;;;;;;;14.58;100.00;99263.91;5020621;28;20102;-52
2021/09/09 00:28:43;;;;;;;10.18;5.80;;;;;;;14.58;100.00;99259.53;5029377;28;20243;-54
2021/09/09 00:31:09;;;;;;;9.45;5.60;;;;;;;14.57;100.00;99263.06;5061984;28;20150;-49
2021/09/09 00:33:36;;;;;;;5.88;4.15;;;;;;;14.54;100.00;99255.41;5029790;28;20037;-51
2021/09/09 00:36:02;;;;;;;9.60;5.50;;;;;;;14.44;100.00;99262.09;5029509;28;20057;-50
2021/09/09 00:38:28;;;;;;;9.43;6.07;;;;;;;14.43;100.00;99256.94;5029775;28;20402;-51
2021/09/09 00:40:54;;;;;;;10.70;6.20;;;;;;;14.36;100.00;99252.06;5030247;28;20425;-50
2021/09/09 00:43:20;;;;;;;8.85;5.72;;;;;;;14.34;100.00;99258.28;5029937;28;20048;-49
2021/09/09 00:45:54;;;;;;;7.95;5.50;;;;;;;14.28;100.00;99248.16;5028580;28;20088;-50
2021/09/09 00:48:20;;;;;;;10.57;5.60;;;;;;;14.25;100.00;99254.41;5028862;28;20037;-48
2021/09/09 00:50:47;;;;;;;8.40;5.30;;;;;;;14.22;100.00;99251.13;5029854;28;20037;-51
2021/09/09 00:53:12;;;;;;;9.13;6.72;;;;;;;14.12;100.00;99234.28;5029575;28;20037;-48
2021/09/09 00:55:38;;;;;;;9.82;6.40;;;;;;;14.17;100.00;99255.78;5028406;28;20045;-54
2021/09/09 00:58:04;;;;;;;7.32;4.70;;;;;;;14.13;100.00;99242.00;5028162;28;20033;-49
2021/09/09 01:00:30;;;;;;;7.25;4.85;;;;;;;14.11;100.00;99243.88;5028029;28;20429;-53
2021/09/09 01:02:56;;;;;;;9.45;6.15;;;;;;;14.10;100.00;99236.97;5029572;28;20048;-53
2021/09/09 01:05:22;;;;;;;11.10;5.65;;;;;;;14.07;100.00;99239.75;5029658;28;20045;-50
2021/09/09 01:07:47;;;;;;;10.05;5.82;;;;;;;14.06;100.00;99239.84;5028753;28;20096;-52
2021/09/09 01:10:13;;;;;;;7.25;4.53;;;;;;;14.04;100.00;99241.69;5030039;28;20540;-49
2021/09/09 01:12:39;;;;;;;8.48;5.95;;;;;;;14.06;100.00;99239.84;5028060;28;20521;-54
2021/09/09 01:15:06;;;;;;;10.75;5.75;;;;;;;14.08;100.00;99223.13;5028500;28;20091;-55
2021/09/09 01:17:32;;;;;;;10.48;6.40;;;;;;;14.11;100.00;99232.56;5027666;28;20037;-54
2021/09/09 01:19:57;;;;;;;9.38;6.15;;;;;;;14.07;100.00;99226.69;5028495;28;20049;-51
2021/09/09 01:22:23;;;;;;;8.93;5.90;;;;;;;14.07;100.00;99226.69;5029198;28;20616;-54
2021/09/09 01:24:49;;;;;;;6.88;5.45;;;;;;;14.05;100.00;99231.16;5018440;28;20536;-48
2021/09/09 01:27:17;;;;;;;9.23;6.00;;;;;;;14.02;100.00;99222.66;5017380;28;20642;-50
2021/09/09 01:29:44;;;;;;;11.38;6.18;;;;;;;14.02;100.00;99226.09;5028947;28;20052;-51
2021/09/09 01:32:10;;;;;;;10.35;6.00;;;;;;;14.02;100.00;99226.09;5024949;28;20540;-55
2021/09/09 01:34:36;;;;;;;9.25;5.70;;;;;;;14.05;100.00;99225.06;5015592;28;20049;-54
2021/09/09 01:37:02;;;;;;;8.20;5.72;;;;;;;14.07;100.00;99223.22;5038442;28;20053;-54
2021/09/09 01:39:28;;;;;;;9.98;4.47;;;;;;;14.11;100.00;99219.50;5027192;28;20041;-48
2021/09/09 01:41:56;;;;;;;8.82;5.63;;;;;;;14.12;100.00;99221.19;5029968;28;20040;-50
2021/09/09 01:44:22;;;;;;;13.07;6.55;;;;;;;14.12;100.00;99224.66;5045015;28;20504;-47
2021/09/09 01:46:48;;;;;;;10.70;5.57;;;;;;;14.11;100.00;99222.97;5027241;28;20049;-53
2021/09/09 01:49:16;;;;;;;7.88;5.35;;;;;;;14.14;100.00;99221.94;5028658;28;20402;-54
2021/09/09 01:51:42;;;;;;;11.93;5.90;;;;;;;14.10;100.00;99212.59;5028675;28;20536;-55
2021/09/09 01:54:08;;;;;;;8.80;5.50;;;;;;;14.18;100.00;99218.25;5029648;28;20045;-52
2021/09/09 01:56:33;;;;;;;7.15;5.30;;;;;;;14.19;100.00;99218.13;5027772;28;20521;-48
2021/09/09 01:58:59;;;;;;;9.30;5.03;;;;;;;14.15;100.00;99207.94;5029399;28;20132;-51
2021/09/09 02:01:25;;;;;;;11.13;5.93;;;;;;;14.19;100.00;99199.00;5031935;28;20045;-50
2021/09/09 02:03:51;;;;;;;7.28;4.82;;;;;;;14.31;100.00;99211.38;5026407;28;20052;-51
2021/09/09 02:06:17;;;;;;;9.98;6.22;;;;;;;14.30;100.00;99209.69;5022755;28;20045;-51
2021/09/09 02:08:43;;;;;;;8.52;4.97;;;;;;;14.35;100.00;99213.72;5031345;28;20052;-53
2021/09/09 02:11:10;;;;;;;9.88;5.72;;;;;;;14.38;100.00;99211.00;5033070;28;20390;-50
2021/09/09 02:13:36;;;;;;;12.00;5.00;;;;;;;14.31;100.00;99198.31;5032325;28;20420;-50
2021/09/09 02:16:03;;;;;;;8.95;5.03;;;;;;;14.36;100.00;99210.22;5032843;28;20049;-52
2021/09/09 02:18:28;;;;;;;8.27;5.43;;;;;;;14.43;100.00;99212.50;5031444;28;20053;-48
2021/09/09 02:20:54;;;;;;;8.77;5.55;;;;;;;14.46;100.00;99217.53;5031025;28;20045;-52
2021/09/09 02:23:20;;;;;;;9.68;4.93;;;;;;;14.49;100.00;99218.22;5032248;28;20516;-52
2021/09/09 02:25:46;;;;;;;8.48;5.57;;;;;;;14.49;99.77;99210.38;5032140;28;20103;-50
2021/09/09 02:28:11;;;;;;;8.02;5.13;;;;;;;14.36;99.68;99193.66;5030235;28;20038;-52
2021/09/09 02:30:37;;;;;;;9.40;5.05;;;;;;;14.36;99.22;99186.69;5031613;28;20045;-49
2021/09/09 02:33:03;;;;;;;8.93;5.43;;;;;;;14.41;99.23;99194.25;5032203;28;20072;-49
2021/09/09 02:35:29;;;;;;;9.55;5.25;;;;;;;14.51;99.06;99205.03;5032751;28;20464;-54
2021/09/09 02:37:54;;;;;;;7.75;4.40;;;;;;;14.49;99.03;99201.69;5032535;28;20433;-52
2021/09/09 02:40:20;;;;;;;7.35;5.25;;;;;;;14.51;99.11;99218.09;5031783;28;20562;-51
2021/09/09 02:42:46;;;;;;;9.70;5.28;;;;;;;14.52;98.44;99217.19;5031449;28;20047;-52
2021/09/09 02:45:12;;;;;;;7.60;4.32;;;;;;;14.46;97.85;99201.84;5032446;28;20091;-52
2021/09/09 02:47:38;;;;;;;20.38;5.40;;;;;;;14.54;97.91;99215.34;5032789;28;20067;-52
2021/09/09 02:50:05;;;;;;;6.45;4.07;;;;;;;14.55;97.49;99214.41;5031096;28;20407;-54
2021/09/09 02:52:31;;;;;;;7.85;4.93;;;;;;;14.50;98.16;99214.66;5031748;28;20080;-53
2021/09/09 02:54:56;;;;;;;11.02;4.15;;;;;;;14.48;97.97;99207.84;5030624;28;20076;-51
2021/09/09 02:57:22;;;;;;;6.75;4.32;;;;;;;14.46;98.12;99209.69;5032217;28;20037;-50
2021/09/09 02:59:48;;;;;;;8.10;4.68;;;;;;;14.46;98.05;99213.16;5030687;28;20048;-50
2021/09/09 03:02:14;;;;;;;7.28;5.05;;;;;;;14.49;97.96;99206.91;5031994;28;20143;-50
2021/09/09 03:04:40;;;;;;;10.30;4.95;;;;;;;14.51;97.37;99216.34;5030086;28;20045;-53
2021/09/09 03:07:05;;;;;;;10.82;4.90;;;;;;;14.55;96.92;99214.41;5028109;28;20064;-52
2021/09/09 03:09:31;;;;;;;7.32;4.78;;;;;;;14.57;96.87;99215.97;5028481;28;20051;-54
2021/09/09 03:11:57;;;;;;;11.20;5.22;;;;;;;14.53;96.80;99214.50;5032003;28;20051;-53
2021/09/09 03:14:23;;;;;;;10.35;5.40;;;;;;;14.61;96.40;99220.09;5033258;28;20079;-49
2021/09/09 03:16:49;;;;;;;7.72;4.65;;;;;;;14.68;95.32;99226.66;5031715;28;20041;-49
2021/09/09 03:19:15;;;;;;;6.03;4.13;;;;;;;14.70;94.94;99227.44;5029840;28;20517;-49
2021/09/09 03:21:41;;;;;;;8.05;4.90;;;;;;;14.63;95.12;99215.63;5029138;28;20029;-49
2021/09/09 03:24:07;;;;;;;5.32;3.78;;;;;;;14.71;94.93;99233.50;5031881;28;20459;-50
2021/09/09 03:26:33;;;;;;;7.20;4.72;;;;;;;14.62;95.24;99210.47;5031281;28;20041;-50
2021/09/09 03:28:58;;;;;;;9.00;4.40;;;;;;;14.70;94.77;99227.44;5031324;28;20042;-48
2021/09/09 03:31:24;;;;;;;9.55;4.68;;;;;;;14.73;94.82;99236.88;5030856;28;20094;-49
2021/09/09 03:33:50;;;;;;;8.43;5.18;;;;;;;14.78;94.83;99227.81;5031619;28;20084;-51
2021/09/09 03:36:15;;;;;;;7.25;4.63;;;;;;;14.72;94.69;99219.47;5026983;28;20049;-50
2021/09/09 03:38:41;;;;;;;8.80;4.82;;;;;;;14.86;94.35;99239.63;5031291;28;20055;-54
2021/09/09 03:41:08;;;;;;;6.97;5.35;;;;;;;14.88;94.04;99242.97;5031158;28;20044;-53
2021/09/09 03:43:34;;;;;;;11.93;5.57;;;;;;;14.84;94.13;99232.69;5031376;28;20464;-52
2021/09/09 03:46:01;;;;;;;7.53;4.15;;;;;;;14.83;94.39;99244.09;5030958;28;20033;-53
2021/09/09 03:48:26;;;;;;;9.45;5.20;;;;;;;14.80;94.35;99233.81;5030287;28;20034;-56
2021/09/09 03:50:52;;;;;;;6.15;4.75;;;;;;;14.72;94.46;99212.47;5030709;28;20063;-56
2021/09/09 03:53:18;;;;;;;7.50;5.40;;;;;;;14.81;94.54;99237.28;5028568;28;20120;-52
2021/09/09 03:55:43;;;;;;;10.35;5.03;;;;;;;14.83;94.52;99228.38;5018177;28;20071;-53
2021/09/09 03:58:09;;;;;;;6.15;5.00;;;;;;;14.86;94.00;99243.09;5030653;28;20041;-52
2021/09/09 04:00:35;;;;;;;9.63;4.78;;;;;;;14.86;93.99;99242.25;5030062;28;20037;-50
2021/09/09 04:03:03;;;;;;;9.30;5.05;;;;;;;14.88;93.80;99250.81;5030877;28;20039;-53
2021/09/09 04:05:29;;;;;;;7.43;5.15;;;;;;;14.89;93.40;99244.66;5030005;28;20038;-53
2021/09/09 04:07:55;;;;;;;8.75;4.97;;;;;;;14.94;93.58;99253.09;5029876;28;20042;-57
2021/09/09 04:10:22;;;;;;;6.95;4.38;;;;;;;14.92;93.31;99252.31;5045736;28;20505;-52
2021/09/09 04:12:47;;;;;;;7.95;5.10;;;;;;;14.85;93.45;99241.41;5032294;28;20120;-53
2021/09/09 04:15:13;;;;;;;7.88;5.22;;;;;;;14.92;93.80;99247.94;5030648;28;20199;-50
2021/09/09 04:17:39;;;;;;;6.00;3.67;;;;;;;14.95;93.12;99260.84;5030887;28;20045;-54
2021/09/09 04:20:05;;;;;;;7.70;5.20;;;;;;;14.86;93.40;99243.09;5030350;28;20056;-56
2021/09/09 04:22:31;;;;;;;7.75;5.00;;;;;;;14.96;93.46;99253.84;5029700;28;20039;-53
2021/09/09 04:24:58;;;;;;;6.97;4.22;;;;;;;14.95;93.11;99257.41;5029375;28;20801;-54
2021/09/09 04:27:24;;;;;;;8.85;5.47;;;;;;;14.94;93.58;99264.41;5028963;28;20033;-56
2021/09/09 04:29:51;;;;;;;7.72;5.25;;;;;;;14.99;93.34;99267.59;5029520;28;20115;-53
2021/09/09 04:32:17;;;;;;;8.30;5.00;;;;;;;14.98;93.13;99271.13;5028930;28;20037;-55
2021/09/09 04:34:43;;;;;;;13.10;5.88;;;;;;;15.00;93.29;99268.44;5062049;28;20049;-56
2021/09/09 04:37:09;;;;;;;5.72;4.20;;;;;;;15.05;92.85;99271.63;5028339;28;20111;-57
2021/09/09 04:39:34;;;;;;;9.52;5.55;;;;;;;15.01;93.40;99268.34;5028785;28;20083;-57
2021/09/09 04:42:00;;;;;;;9.85;5.32;;;;;;;15.03;93.28;99263.00;5028777;28;20129;-56
2021/09/09 04:44:26;;;;;;;9.40;5.25;;;;;;;15.05;93.28;99267.22;5029008;28;20033;-56
2021/09/09 04:46:51;;;;;;;15.80;5.20;;;;;;;15.08;93.12;99264.41;5029631;28;20051;-57
2021/09/09 04:49:17;;;;;;;8.02;4.70;;;;;;;15.11;93.12;99266.88;5027293;28;20045;-61
2021/09/09 04:51:43;;;;;;;6.63;4.07;;;;;;;15.05;92.74;99263.78;5014120;28;20477;-55
2021/09/09 04:54:09;;;;;;;8.57;5.32;;;;;;;15.10;92.92;99254.72;5015829;28;20532;-56
2021/09/09 04:56:35;;;;;;;9.00;5.45;;;;;;;15.16;93.06;99256.13;5028203;28;20041;-53
2021/09/09 04:59:01;;;;;;;7.05;5.30;;;;;;;15.14;92.85;99247.50;5011519;28;20053;-58
2021/09/09 05:01:26;;;;;;;8.88;5.15;;;;;;;15.11;92.71;99242.47;5028755;28;20556;-48
2021/09/09 05:03:54;;;;;;;8.25;5.45;;;;;;;15.25;92.36;99263.41;5027389;28;20505;-53
2021/09/09 05:06:19;;;;;;;7.65;5.53;;;;;;;15.19;91.70;99232.34;5027510;28;20042;-51
2021/09/09 05:08:45;;;;;;;10.27;5.13;;;;;;;15.36;91.32;99261.00;5027933;28;20091;-55
2021/09/09 05:11:11;;;;;;;9.45;5.00;;;;;;;15.26;91.70;99252.88;5026687;28;20045;-54
2021/09/09 05:13:38;;;;;;;8.68;4.70;;;;;;;15.34;91.54;99260.25;5028669;28;20047;-53
2021/09/09 05:16:05;;;;;;;10.55;5.25;;;;;;;15.36;91.52;99257.53;5028089;28;20425;-59
2021/09/09 05:18:31;;;;;;;9.07;5.40;;;;;;;15.38;91.05;99256.53;5010665;28;20076;-53
2021/09/09 05:20:56;;;;;;;6.85;4.82;;;;;;;15.42;90.68;99255.41;5028964;28;20069;-51
2021/09/09 05:23:22;;;;;;;6.72;4.97;;;;;;;15.44;90.80;99256.13;5028868;28;20069;-53
2021/09/09 05:25:48;;;;;;;12.63;5.13;;;;;;;15.50;90.26;99261.00;5028623;28;20041;-56
2021/09/09 05:28:13;;;;;;;8.85;5.45;;;;;;;15.44;90.59;99263.97;5028355;28;20095;-53
2021/09/09 05:30:39;;;;;;;10.75;5.55;;;;;;;15.45;90.75;99260.44;5027418;28;20590;-50
2021/09/09 05:33:05;;;;;;;9.07;4.40;;;;;;;15.48;90.04;99265.50;5028528;28;20045;-50
2021/09/09 05:35:30;;;;;;;9.23;4.75;;;;;;;15.45;90.47;99259.59;5028998;28;20048;-52
2021/09/09 05:37:56;;;;;;;11.35;5.78;;;;;;;15.46;90.83;99263.91;5028001;28;20089;-51
2021/09/09 05:40:22;;;;;;;8.55;5.13;;;;;;;15.51;91.04;99264.47;5028906;28;20080;-55
2021/09/09 05:42:47;;;;;;;8.02;4.72;;;;;;;15.49;90.50;99258.50;5029364;28;20457;-54
2021/09/09 05:45:13;;;;;;;7.97;5.00;;;;;;;15.58;90.47;99264.03;5028448;28;20164;-55
2021/09/09 05:47:39;;;;;;;9.05;5.20;;;;;;;15.47;90.06;99249.88;5028777;28;20056;-56
2021/09/09 05:50:06;;;;;;;8.88;5.28;;;;;;;15.45;90.23;99247.34;5028852;28;20068;-58
2021/09/09 05:52:32;;;;;;;15.18;5.13;;;;;;;15.56;90.39;99260.66;5028850;28;20098;-52
2021/09/09 05:54:57;;;;;;;8.57;5.30;;;;;;;15.63;89.93;99264.59;5026331;28;20045;-53
2021/09/09 05:57:23;;;;;;;7.68;4.72;;;;;;;15.70;89.41;99274.69;5029333;28;20038;-55
2021/09/09 05:59:50;;;;;;;7.68;4.85;;;;;;;15.71;89.46;99258.84;5027157;28;20531;-56
2021/09/09 06:02:17;;;;;;;6.63;4.38;;;;;;;15.70;89.61;99261.59;5026938;28;20339;-53
2021/09/09 06:04:44;;;;;;;7.90;5.32;;;;;;;15.74;89.49;99263.94;5025293;28;20073;-53
2021/09/09 06:07:10;;;;;;;7.90;4.97;;;;;;;15.89;88.72;99262.97;5027476;28;20126;-53
2021/09/09 06:09:40;;;;;;;9.10;4.72;;;;;;;15.90;87.93;99254.19;5028681;28;20552;-55
2021/09/09 06:12:06;;;;;;;8.27;5.22;;;;;;;15.97;88.15;99260.69;5028208;28;20545;-44
2021/09/09 06:14:32;;;;;;;8.07;4.78;;;;;;;16.02;88.57;99271.75;5028234;28;20045;-54
2021/09/09 06:16:58;;;;;;;7.32;4.95;;;;;;;16.03;88.45;99262.09;5026850;28;20052;-54
2021/09/09 06:19:24;;;;;;;6.38;4.13;;;;;;;16.07;88.08;99261.78;5025732;28;20037;-53
2021/09/09 06:21:51;;;;;;;9.60;5.55;;;;;;;16.19;87.56;99259.34;5024931;28;20099;-55
2021/09/09 06:24:16;;;;;;;7.35;4.43;;;;;;;16.24;86.69;99260.72;5026932;28;22243;-56
2021/09/09 06:26:42;;;;;;;8.52;4.43;;;;;;;16.20;86.57;99254.00;5027587;28;20037;-56
2021/09/09 06:29:08;;;;;;;7.43;4.35;;;;;;;16.28;86.11;99270.06;5026897;28;20052;-55
2021/09/09 06:31:34;;;;;;;8.40;5.10;;;;;;;16.28;86.46;99262.22;5027880;28;20037;-54
2021/09/09 06:33:59;;;;;;;6.95;5.13;;;;;;;16.45;85.56;99267.22;5028707;28;20432;-54
2021/09/09 06:36:25;;;;;;;9.73;4.80;;;;;;;16.48;85.41;99266.19;5028051;28;20045;-54
2021/09/09 06:38:51;;;;;;;6.97;4.78;;;;;;;16.53;85.07;99259.69;5029253;28;20053;-56
2021/09/09 06:41:17;;;;;;;9.90;4.85;;;;;;;16.60;84.41;99280.31;5027295;28;20037;-55
2021/09/09 06:43:42;;;;;;;8.38;4.18;;;;;;;16.53;84.33;99259.69;5026489;28;20550;-55
2021/09/09 06:46:08;;;;;;;6.80;4.40;;;;;;;16.61;84.35;99259.22;5030036;28;20049;-54
2021/09/09 06:48:34;;;;;;;11.02;4.53;;;;;;;16.62;84.35;99268.78;5032195;28;20512;-51
2021/09/09 06:51:01;;;;;;;7.38;4.30;;;;;;;16.72;84.05;99269.84;5031998;28;20374;-50
2021/09/09 06:53:28;;;;;;;7.35;4.72;;;;;;;16.64;84.22;99268.69;5048082;28;20051;-56
2021/09/09 06:55:54;;;;;;;8.35;5.00;;;;;;;16.68;84.73;99276.25;5032486;28;20041;-52
2021/09/09 06:58:20;;;;;;;7.45;4.93;;;;;;;16.65;84.87;99271.19;5031106;28;20425;-56
2021/09/09 07:00:46;;;;;;;8.93;4.40;;;;;;;16.68;85.16;99273.63;5030583;28;20037;-54
2021/09/09 07:03:12;;;;;;;8.05;4.60;;;;;;;16.70;85.13;99274.34;5030026;28;20045;-55
2021/09/09 07:05:38;;;;;;;8.45;4.45;;;;;;;16.64;85.93;99271.31;5063927;28;20049;-55
2021/09/09 07:08:04;;;;;;;7.65;4.32;;;;;;;16.71;85.95;99277.81;5032201;28;20124;-52
2021/09/09 07:10:30;;;;;;;9.15;5.10;;;;;;;16.85;85.35;99280.41;5031636;28;20186;-50
2021/09/09 07:12:56;;;;;;;10.27;4.88;;;;;;;17.15;84.21;99283.59;5032064;28;20056;-53
2021/09/09 07:15:22;;;;;;;10.68;5.22;;;;;;;17.40;82.69;99282.75;5031998;28;20060;-51
2021/09/09 07:17:47;;;;;;;5.07;3.95;;;;;;;17.58;80.84;99293.81;5032002;28;20433;-56
2021/09/09 07:20:13;;;;;;;10.27;4.63;;;;;;;17.73;80.27;99296.25;5046433;28;20509;-50
2021/09/09 07:22:39;;;;;;;8.30;4.07;;;;;;;17.82;77.55;99272.84;5031745;28;20049;-54
2021/09/09 07:25:06;;;;;;;5.50;3.50;;;;;;;18.13;75.98;99278.47;5030090;28;20091;-54
2021/09/09 07:27:32;;;;;;;7.13;4.28;;;;;;;18.47;74.59;99289.19;5030393;28;20135;-54
2021/09/09 07:29:58;;;;;;;7.13;4.72;;;;;;;18.66;73.74;99286.91;5031038;28;20041;-57
2021/09/09 07:32:24;;;;;;;5.78;3.90;;;;;;;18.97;72.71;99291.59;5030924;28;20041;-54
2021/09/09 07:34:50;;;;;;;7.75;4.10;;;;;;;18.79;72.16;99289.50;5031672;28;20548;-54
2021/09/09 07:37:16;;;;;;;6.97;3.80;;;;;;;18.43;72.72;99275.41;5031250;28;20060;-52
2021/09/09 07:39:42;;;;;;;5.05;3.40;;;;;;;18.35;73.17;99298.81;5031085;28;20045;-53
2021/09/09 07:42:08;;;;;;;6.47;3.90;;;;;;;18.26;73.93;99303.91;5010366;28;20517;-54
2021/09/09 07:44:33;;;;;;;5.15;3.35;;;;;;;18.30;73.35;99282.53;5021521;28;20406;-52
2021/09/09 07:47:01;;;;;;;9.65;4.78;;;;;;;18.54;72.54;99300.97;5029926;28;20045;-54
2021/09/09 07:49:27;;;;;;;8.45;3.83;;;;;;;18.66;71.99;99302.72;5030685;28;20061;-53
2021/09/09 07:51:53;;;;;;;10.60;4.05;;;;;;;18.67;72.03;99301.78;5031614;28;20041;-53
2021/09/09 07:54:19;;;;;;;7.63;3.60;;;;;;;18.84;71.28;99296.06;5031337;28;20037;-51
2021/09/09 07:56:47;;;;;;;4.72;3.55;;;;;;;18.84;71.09;99290.81;5031427;28;20037;-54
2021/09/09 07:59:17;;;;;;;11.70;3.20;;;;;;;18.81;71.58;99300.75;5031265;28;20057;-54
2021/09/09 08:01:44;;;;;;;6.47;3.35;;;;;;;18.72;71.70;99302.28;5030598;28;20574;-54
2021/09/09 08:04:15;;;;;;;5.53;3.50;;;;;;;18.81;71.80;99298.09;5025836;28;20064;-50
2021/09/09 08:06:43;;;;;;;7.28;3.65;;;;;;;18.86;71.45;99303.88;5030255;28;20048;-53
2021/09/09 08:09:09;;;;;;;5.85;3.60;;;;;;;18.94;71.30;99302.38;5030170;28;20064;-54
2021/09/09 08:11:34;;;;;;;8.70;3.53;;;;;;;19.25;70.48;99305.31;5030600;28;20132;-53
2021/09/09 08:14:00;;;;;;;5.70;3.33;;;;;;;19.37;69.58;99299.94;5031193;28;20532;-53
2021/09/09 08:16:26;;;;;;;6.22;3.15;;;;;;;19.20;68.82;99300.41;5029884;28;20045;-55
2021/09/09 08:18:51;;;;;;;7.13;3.20;;;;;;;19.22;69.37;99301.09;5030938;28;20484;-54
2021/09/09 08:21:17;;;;;;;5.82;3.15;;;;;;;19.59;68.78;99301.81;5030525;28;20052;-52
2021/09/09 08:23:43;;;;;;;5.68;2.90;;;;;;;20.13;66.81;99298.44;5029362;28;20048;-51
2021/09/09 08:26:10;;;;;;;6.70;3.15;;;;;;;20.37;65.48;99298.28;5030974;28;20044;-56
2021/09/09 08:28:36;;;;;;;4.72;3.00;;;;;;;20.27;64.76;99288.44;5030388;28;20029;-54
2021/09/09 08:31:03;;;;;;;5.80;2.75;;;;;;;20.32;64.75;99305.75;5030849;28;20041;-56
2021/09/09 08:33:28;;;;;;;3.50;2.53;;;;;;;20.58;63.47;99307.97;5030891;28;20041;-55
2021/09/09 08:35:54;;;;;;;5.38;2.65;;;;;;;20.69;63.72;99300.00;5030835;28;20052;-54
2021/09/09 08:38:19;;;;;;;5.72;2.55;;;;;;;20.94;62.76;99305.88;5030204;28;20088;-52
2021/09/09 08:40:49;;;;;;;3.90;2.70;;;;;;;20.94;62.46;99279.47;5029502;28;20041;-55
2021/09/09 08:43:15;;;;;;;3.72;2.67;;;;;;;21.49;60.72;99297.69;5029397;28;20125;-52
2021/09/09 08:45:41;;;;;;;7.07;2.80;;;;;;;21.48;59.88;99311.03;5029726;28;20486;-57
2021/09/09 08:48:08;;;;;;;2.78;2.30;;;;;;;20.75;61.83;99293.38;5030074;28;20091;-55
2021/09/09 08:50:34;;;;;;;9.25;3.28;;;;;;;20.82;62.32;99313.06;5030795;28;20041;-55
2021/09/09 08:53:01;;;;;;;5.10;2.50;;;;;;;20.68;62.50;99310.69;5029525;28;20041;-54
2021/09/09 08:55:27;;;;;;;3.30;2.35;;;;;;;20.84;62.17;99308.47;5030787;28;20648;-54
2021/09/09 08:57:55;;;;;;;5.20;2.45;;;;;;;20.83;61.87;99303.31;5029998;28;20081;-55
2021/09/09 09:00:21;;;;;;;3.92;2.50;;;;;;;20.81;61.97;99311.38;5030561;28;20041;-56
2021/09/09 09:02:56;;;;;;;3.05;2.45;;;;;;;20.49;62.03;99302.59;5029105;28;20760;-54
2021/09/09 09:05:23;;;;;;;4.13;2.70;;;;;;;20.54;62.38;99311.81;5011465;28;20433;-57
2021/09/09 09:08:00;;;;;;;8.35;2.55;;;;;;;20.66;62.48;99324.03;5010352;28;20036;-56
2021/09/09 09:10:26;;;;;;;2.97;2.33;;;;;;;20.80;62.13;99317.63;5010539;28;20041;-51
2021/09/09 09:12:52;;;;;;;6.57;2.70;;;;;;;20.68;61.99;99300.09;5027830;28;20080;-54
2021/09/09 09:15:23;;;;;;;3.92;2.40;;;;;;;20.74;62.03;99320.75;5030130;28;20041;-54
2021/09/09 09:18:08;;;;;;;6.00;2.42;;;;;;;20.62;62.28;99319.94;5028836;28;20128;-57
2021/09/09 09:20:47;;;;;;;4.50;2.53;;;;;;;20.55;62.90;99315.31;5030196;28;20037;-54
2021/09/09 09:23:16;;;;;;;5.93;2.78;;;;;;;20.46;63.03;99316.91;5029803;28;20433;-54
2021/09/09 09:25:42;;;;;;;;;;;;;;;20.62;62.98;99327.06;5028899;28;20529;-55
2021/09/09 09:28:08;;;;;;;5.78;2.55;;;;;;;20.66;63.02;99324.03;5027957;28;19924;-54
2021/09/09 09:30:33;;;;;;;3.40;2.30;;;;;;;20.59;62.81;99304.34;5029500;28;20045;-54
2021/09/09 09:33:01;;;;;;;2.83;2.38;;;;;;;20.73;62.81;99320.91;5028868;28;20041;-52
2021/09/09 09:35:27;;;;;;;5.53;2.40;;;;;;;20.76;62.22;99320.63;5029499;28;20241;-56
2021/09/09 09:38:07;;;;;;;3.65;2.50;;;;;;;20.67;62.39;99323.03;5029052;28;20054;-54
2021/09/09 09:40:40;;;;;;;4.55;2.50;;;;;;;20.55;62.76;99320.59;5029579;28;20076;-52
2021/09/09 09:43:08;;;;;;;8.75;2.60;;;;;;;20.42;63.02;99327.81;5028543;28;20045;-50
2021/09/09 09:45:33;;;;;;;4.75;2.38;;;;;;;20.12;64.17;99326.63;5028492;28;20068;-54
2021/09/09 09:47:59;;;;;;;5.30;3.58;;;;;;;20.05;64.91;99327.22;5029408;28;20073;-51
2021/09/09 09:50:25;;;;;;;5.35;3.00;;;;;;;20.02;65.63;99328.31;5029565;28;20099;-50
2021/09/09 09:53:15;;;;;;;5.40;2.40;;;;;;;20.18;65.43;99323.50;5028733;28;20072;-54
2021/09/09 09:55:41;;;;;;;4.82;2.70;;;;;;;20.39;64.68;99323.63;5029386;28;20587;-54
2021/09/09 09:58:07;;;;;;;4.68;2.55;;;;;;;20.61;63.88;99320.94;5029365;28;20030;-57
2021/09/09 10:00:33;;;;;;;4.93;3.17;;;;;;;20.60;63.91;99319.25;5029437;28;20045;-54
2021/09/09 10:02:58;;;;;;;6.63;2.80;;;;;;;20.45;64.31;99322.28;5028816;28;20049;-52
2021/09/09 10:05:24;;;;;;;4.93;3.28;;;;;;;20.35;64.97;99316.91;5024422;28;20037;-55
2021/09/09 10:07:50;;;;;;;7.82;4.00;;;;;;;20.34;65.48;99324.94;5029269;28;20395;-52
2021/09/09 10:10:16;;;;;;;5.47;2.90;;;;;;;20.29;65.91;99323.50;5028045;28;20494;-54
2021/09/09 10:12:44;;;;;;;5.45;2.88;;;;;;;20.25;65.61;99311.47;5028763;28;20144;-54
2021/09/09 10:15:12;;;;;;;3.95;2.60;;;;;;;20.50;64.88;99330.69;5011966;28;20119;-49
2021/09/09 10:17:38;;;;;;;7.83;2.40;;;;;;;20.37;64.15;99333.47;5028920;28;20449;-55
2021/09/09 10:20:32;;;;;;;3.95;2.70;;;;;;;20.20;64.84;99341.88;5028469;28;20288;-53
2021/09/09 10:23:11;;;;;;;7.68;2.63;;;;;;;19.98;65.58;99326.88;5031484;28;20378;-52
2021/09/09 10:25:54;;;;;;;4.95;2.47;;;;;;;19.97;65.76;99341.03;5031395;28;20056;-54
2021/09/09 10:28:45;;;;;;;6.18;3.05;;;;;;;19.97;66.23;99333.13;5030869;28;20110;-54
2021/09/09 10:31:13;;;;;;;5.85;2.63;;;;;;;19.96;65.51;99320.03;5031704;28;20076;-47
2021/09/09 10:33:57;;;;;;;4.83;2.67;;;;;;;20.31;65.12;99333.94;5032443;28;20043;-53
2021/09/09 10:36:45;;;;;;;5.63;2.65;;;;;;;20.48;64.48;99341.34;5031327;28;20045;-53
2021/09/09 10:39:33;;;;;;;5.13;2.65;;;;;;;20.54;63.67;99330.31;5031549;28;20087;-53
2021/09/09 10:41:59;;;;;;;8.63;3.30;;;;;;;20.42;64.22;99328.63;5032406;28;20568;-55
2021/09/09 10:44:27;;;;;;;5.72;2.50;;;;;;;20.39;63.76;99318.34;5030716;28;20156;-53
2021/09/09 10:46:55;;;;;;;5.83;2.70;;;;;;;20.70;63.57;99337.81;5032223;28;20501;-54
2021/09/09 10:49:22;;;;;;;4.38;2.55;;;;;;;20.62;63.49;99335.78;5031026;28;20037;-54
2021/09/09 10:52:04;;;;;;;4.60;2.38;;;;;;;20.51;63.42;99335.84;5031951;28;20056;-54
2021/09/09 10:54:31;;;;;;;6.00;2.75;;;;;;;20.76;63.24;99336.50;5031941;28;20045;-52
2021/09/09 10:57:13;;;;;;;6.43;2.60;;;;;;;20.90;62.65;99337.03;5030449;28;20109;-53
2021/09/09 10:59:49;;;;;;;3.97;2.75;;;;;;;21.14;62.17;99339.50;5030628;28;20045;-50
2021/09/09 11:02:16;;;;;;;6.35;2.70;;;;;;;21.03;62.16;99339.50;5031963;28;20056;-53
2021/09/09 11:04:42;;;;;;;4.28;2.60;;;;;;;20.99;62.17;99338.06;5018343;28;20128;-52
2021/09/09 11:07:21;;;;;;;5.47;2.90;;;;;;;21.25;61.83;99338.59;5025218;28;20045;-51
2021/09/09 11:09:47;;;;;;;3.95;2.80;;;;;;;21.18;61.32;99338.25;5032167;28;20467;-51
2021/09/09 11:12:13;;;;;;;4.53;2.40;;;;;;;21.06;61.54;99347.19;5018507;28;20046;-54
2021/09/09 11:14:41;;;;;;;4.27;2.70;;;;;;;20.90;61.99;99342.31;5023370;28;20084;-55
2021/09/09 11:17:15;;;;;;;4.35;2.60;;;;;;;20.90;62.39;99344.97;5029728;28;20362;-51
2021/09/09 11:19:41;;;;;;;3.90;2.30;;;;;;;20.61;62.46;99347.34;5031825;28;20128;-53
2021/09/09 11:22:12;;;;;;;3.85;2.40;;;;;;;20.47;63.20;99347.59;5031675;28;20548;-52
2021/09/09 11:24:38;;;;;;;4.28;2.40;;;;;;;20.42;63.76;99351.56;5030632;28;20033;-52
2021/09/09 11:27:13;;;;;;;6.18;2.50;;;;;;;20.13;64.35;99361.78;5029944;28;20461;-54
2021/09/09 11:29:39;;;;;;;3.22;2.45;;;;;;;19.87;65.44;99354.09;5031711;28;20070;-54
2021/09/09 11:32:05;;;;;;;2.67;2.30;;;;;;;19.81;65.88;99356.38;5031224;28;20080;-53